createdAt,value
2019-03-31T00:01:44.594Z,5.06
2019-03-31T00:04:50.227Z,5.00
2019-03-31T00:07:55.917Z,4.78
2019-03-31T00:11:01.558Z,4.85
2019-03-31T00:14:07.207Z,4.71
2019-03-31T00:17:13.839Z,4.79
2019-03-31T00:20:19.498Z,4.96
2019-03-31T00:23:25.230Z,4.92
2019-03-31T00:26:30.895Z,5.24
2019-03-31T00:29:36.600Z,5.16
2019-03-31T00:32:42.288Z,4.98
2019-03-31T00:35:47.937Z,4.87
2019-03-31T00:38:53.634Z,4.63
2019-03-31T00:41:59.294Z,4.50
2019-03-31T00:45:05.465Z,4.39
2019-03-31T00:48:11.145Z,4.31
2019-03-31T00:51:16.802Z,4.24
2019-03-31T00:54:22.486Z,4.20
2019-03-31T00:57:28.293Z,4.38
2019-03-31T01:01:05.103Z,4.44
2019-03-31T01:04:16.585Z,4.41
2019-03-31T01:07:24.376Z,4.63
2019-03-31T01:10:30.878Z,4.65
2019-03-31T01:13:36.646Z,4.46
2019-03-31T01:16:42.466Z,4.38
2019-03-31T01:19:48.221Z,4.29
2019-03-31T01:22:53.931Z,4.04
2019-03-31T01:26:00.583Z,3.96
2019-03-31T01:29:06.604Z,3.91
2019-03-31T01:32:12.473Z,3.94
2019-03-31T01:35:18.429Z,3.78
2019-03-31T01:38:24.182Z,3.68
2019-03-31T01:41:29.862Z,3.54
2019-03-31T01:44:35.597Z,3.56
2019-03-31T01:47:41.233Z,3.52
2019-03-31T01:50:46.926Z,3.60
2019-03-31T01:53:52.603Z,3.53
2019-03-31T01:56:58.287Z,3.58
2019-03-31T02:00:07.839Z,3.51
2019-03-31T02:03:13.574Z,3.49
2019-03-31T02:06:19.321Z,3.36
2019-03-31T02:09:24.992Z,3.43
2019-03-31T02:12:30.714Z,3.39
2019-03-31T02:15:36.406Z,3.25
2019-03-31T02:18:42.083Z,3.30
2019-03-31T02:21:47.794Z,3.33
2019-03-31T02:24:53.548Z,3.33
2019-03-31T02:27:59.547Z,3.31
2019-03-31T02:31:05.202Z,3.31
2019-03-31T02:34:10.906Z,3.10
2019-03-31T02:37:16.548Z,3.03
2019-03-31T02:40:22.186Z,3.30
2019-03-31T02:43:27.899Z,3.24
2019-03-31T02:46:33.559Z,3.28
2019-03-31T02:49:39.170Z,3.15
2019-03-31T02:52:44.790Z,3.14
2019-03-31T02:55:51.575Z,3.13
2019-03-31T02:59:00.618Z,3.49
2019-03-31T03:02:06.373Z,3.43
2019-03-31T03:05:19.663Z,3.18
2019-03-31T03:08:22.526Z,3.00
2019-03-31T03:11:30.104Z,3.01
2019-03-31T03:14:38.230Z,2.81
2019-03-31T03:17:43.904Z,2.71
2019-03-31T03:20:49.578Z,2.65
2019-03-31T03:23:55.306Z,2.61
2019-03-31T03:27:00.973Z,2.55
2019-03-31T03:30:07.030Z,2.51
2019-03-31T03:33:16.276Z,2.44
2019-03-31T03:36:20.032Z,2.47
2019-03-31T03:39:25.701Z,2.54
2019-03-31T03:42:31.440Z,2.52
2019-03-31T03:45:37.102Z,2.46
2019-03-31T03:48:42.770Z,2.42
2019-03-31T03:51:48.590Z,2.39
2019-03-31T03:54:54.208Z,2.23
2019-03-31T03:57:59.928Z,2.41
2019-03-31T04:01:13.308Z,2.54
2019-03-31T04:04:19.070Z,2.32
2019-03-31T04:07:24.784Z,2.25
2019-03-31T04:11:20.660Z,2.26
2019-03-31T04:14:23.475Z,2.24
2019-03-31T04:17:29.215Z,2.10
2019-03-31T04:20:39.143Z,2.07
2019-03-31T04:23:42.305Z,2.07
2019-03-31T04:26:47.999Z,2.29
2019-03-31T04:29:53.681Z,2.61
2019-03-31T04:32:59.350Z,2.38
2019-03-31T04:36:05.058Z,2.23
2019-03-31T04:39:10.773Z,2.17
2019-03-31T04:42:16.521Z,2.23
2019-03-31T04:45:22.190Z,2.38
2019-03-31T04:48:27.831Z,2.42
2019-03-31T04:51:33.471Z,2.47
2019-03-31T04:54:39.140Z,2.48
2019-03-31T04:57:44.774Z,2.47
2019-03-31T05:00:50.525Z,2.52
2019-03-31T05:04:04.406Z,2.58
2019-03-31T05:07:03.567Z,2.49
2019-03-31T05:10:09.376Z,2.58
2019-03-31T05:13:15.100Z,2.62
2019-03-31T05:16:20.806Z,2.63
2019-03-31T05:19:26.447Z,2.65
2019-03-31T05:22:32.144Z,2.83
2019-03-31T05:25:37.746Z,2.97
2019-03-31T05:28:44.299Z,3.35
2019-03-31T05:31:50.062Z,3.56
2019-03-31T05:34:55.730Z,3.57
2019-03-31T05:38:01.401Z,3.79
2019-03-31T05:41:07.072Z,4.12
2019-03-31T05:44:12.797Z,4.03
2019-03-31T05:47:18.486Z,4.11
2019-03-31T05:50:24.164Z,4.04
2019-03-31T05:53:29.794Z,3.96
2019-03-31T05:56:35.533Z,4.00
2019-03-31T05:59:41.300Z,4.20
2019-03-31T06:02:46.942Z,4.29
2019-03-31T06:05:52.681Z,4.37
2019-03-31T06:08:58.321Z,4.39
2019-03-31T06:12:04.109Z,4.37
2019-03-31T06:15:09.896Z,4.53
2019-03-31T06:18:15.577Z,4.69
2019-03-31T06:21:21.229Z,4.59
2019-03-31T06:24:26.898Z,4.80
2019-03-31T06:27:33.558Z,5.18
2019-03-31T06:30:39.259Z,5.65
2019-03-31T06:33:44.908Z,6.07
2019-03-31T06:36:50.621Z,6.06
2019-03-31T06:39:56.323Z,6.63
2019-03-31T06:43:02.028Z,7.04
2019-03-31T06:46:07.714Z,7.26
2019-03-31T06:49:13.399Z,7.39
2019-03-31T06:52:19.125Z,7.22
2019-03-31T06:55:24.785Z,7.58
2019-03-31T06:58:30.446Z,7.74
2019-03-31T07:01:36.193Z,7.63
2019-03-31T07:04:41.938Z,7.62
2019-03-31T07:07:47.657Z,7.10
2019-03-31T07:10:53.901Z,6.88
2019-03-31T07:13:59.678Z,6.65
2019-03-31T07:17:05.351Z,7.42
2019-03-31T07:20:12.349Z,7.72
2019-03-31T07:23:18.029Z,7.89
2019-03-31T07:26:23.724Z,7.71
2019-03-31T07:29:29.414Z,7.33
2019-03-31T07:32:35.108Z,7.62
2019-03-31T07:35:40.809Z,8.21
2019-03-31T07:38:46.455Z,8.97
2019-03-31T07:41:52.481Z,9.36
2019-03-31T07:44:58.223Z,9.33
2019-03-31T07:48:03.940Z,9.69
2019-03-31T07:51:09.595Z,9.63
2019-03-31T07:54:16.275Z,9.37
2019-03-31T07:57:21.960Z,9.40
2019-03-31T08:00:27.604Z,9.90
2019-03-31T08:03:33.291Z,10.19
2019-03-31T08:06:38.976Z,10.43
2019-03-31T08:09:44.664Z,10.37
2019-03-31T08:12:50.378Z,10.61
2019-03-31T08:15:56.065Z,10.55
2019-03-31T08:19:01.804Z,10.99
2019-03-31T08:22:07.509Z,10.95
2019-03-31T08:25:14.065Z,11.50
2019-03-31T08:28:19.697Z,11.86
2019-03-31T08:31:25.454Z,12.12
2019-03-31T08:34:31.096Z,12.62
2019-03-31T08:37:36.914Z,12.40
2019-03-31T08:40:42.620Z,12.97
2019-03-31T08:43:48.372Z,13.45
2019-03-31T08:46:54.009Z,13.35
2019-03-31T08:50:02.178Z,13.52
2019-03-31T08:53:07.099Z,14.18
2019-03-31T08:56:12.775Z,14.65
2019-03-31T08:59:18.414Z,15.07
2019-03-31T09:02:26.431Z,14.94
2019-03-31T09:05:32.182Z,15.33
2019-03-31T09:08:37.852Z,15.00
2019-03-31T09:11:43.598Z,15.22
2019-03-31T09:14:49.256Z,15.58
2019-03-31T09:17:54.985Z,15.61
2019-03-31T09:21:00.746Z,16.00
2019-03-31T09:24:06.580Z,15.38
2019-03-31T09:27:12.296Z,15.75
2019-03-31T09:30:18.627Z,16.17
2019-03-31T09:33:24.285Z,15.97
2019-03-31T09:36:29.964Z,16.57
2019-03-31T09:39:35.678Z,16.93
2019-03-31T09:42:41.548Z,17.42
2019-03-31T09:45:47.268Z,17.71
2019-03-31T09:48:52.958Z,17.90
2019-03-31T09:51:58.641Z,17.82
2019-03-31T09:55:04.458Z,17.66
2019-03-31T09:58:10.118Z,17.34
2019-03-31T10:01:15.840Z,17.88
2019-03-31T10:04:21.566Z,17.58
2019-03-31T10:07:27.786Z,18.25
2019-03-31T10:10:33.952Z,18.17
2019-03-31T10:13:39.652Z,18.53
2019-03-31T10:16:45.363Z,18.73
2019-03-31T10:19:51.057Z,19.15
2019-03-31T10:22:56.778Z,19.47
2019-03-31T10:26:02.454Z,19.85
2019-03-31T10:29:08.123Z,20.02
2019-03-31T10:32:13.856Z,20.02
2019-03-31T10:35:19.546Z,19.08
2019-03-31T10:38:25.254Z,18.84
2019-03-31T10:41:31.171Z,19.15
2019-03-31T10:44:37.025Z,19.26
2019-03-31T10:47:42.825Z,19.10
2019-03-31T10:50:48.537Z,19.35
2019-03-31T10:53:54.210Z,19.46
2019-03-31T10:56:59.901Z,19.98
2019-03-31T11:00:06.613Z,19.76
2019-03-31T11:03:12.286Z,19.36
2019-03-31T11:06:18.090Z,19.64
2019-03-31T11:09:23.808Z,19.15
2019-03-31T11:12:29.603Z,19.16
2019-03-31T11:15:35.276Z,19.44
2019-03-31T11:18:40.964Z,18.87
2019-03-31T11:22:08.311Z,18.59
2019-03-31T11:25:21.099Z,19.04
2019-03-31T11:28:21.533Z,18.32
2019-03-31T11:31:27.267Z,18.49
2019-03-31T11:34:32.948Z,18.35
2019-03-31T11:37:38.677Z,18.34
2019-03-31T11:40:44.378Z,18.44
2019-03-31T11:43:51.180Z,18.67
2019-03-31T11:46:56.879Z,18.63
2019-03-31T11:50:02.594Z,18.63
2019-03-31T11:53:08.258Z,19.71
2019-03-31T11:56:14.002Z,19.68
2019-03-31T11:59:21.044Z,19.68
2019-03-31T12:02:27.829Z,19.56
2019-03-31T12:05:33.759Z,19.57
2019-03-31T12:08:39.468Z,19.49
2019-03-31T12:11:45.796Z,19.26
2019-03-31T12:15:00.391Z,19.26
2019-03-31T12:17:59.133Z,19.04
2019-03-31T12:21:04.786Z,19.20
2019-03-31T12:24:11.480Z,19.35
2019-03-31T12:27:17.188Z,19.35
2019-03-31T12:30:28.819Z,19.16
2019-03-31T12:33:34.530Z,19.18
2019-03-31T12:36:40.234Z,19.51
2019-03-31T12:39:46.030Z,19.72
2019-03-31T12:42:51.793Z,19.56
2019-03-31T12:45:57.548Z,19.74
2019-03-31T12:49:03.292Z,19.94
2019-03-31T12:52:08.958Z,19.98
2019-03-31T12:55:14.624Z,19.98
2019-03-31T12:58:21.409Z,19.69
2019-03-31T13:01:27.101Z,19.35
2019-03-31T13:04:32.745Z,20.10
2019-03-31T13:07:38.436Z,20.25
2019-03-31T13:10:44.110Z,20.70
2019-03-31T13:13:49.814Z,20.78
2019-03-31T13:16:55.528Z,20.53
2019-03-31T13:20:01.191Z,19.92
2019-03-31T13:23:06.979Z,20.99
2019-03-31T13:26:12.750Z,21.09
2019-03-31T13:29:18.422Z,20.81
2019-03-31T13:32:24.110Z,20.83
2019-03-31T13:35:29.805Z,21.41
2019-03-31T13:38:35.485Z,21.26
2019-03-31T13:41:41.153Z,20.98
2019-03-31T13:44:46.870Z,21.06
2019-03-31T13:47:52.530Z,20.81
2019-03-31T13:50:58.192Z,20.89
2019-03-31T13:54:03.942Z,20.28
2019-03-31T13:57:10.369Z,20.43
2019-03-31T14:00:26.536Z,20.35
2019-03-31T14:03:30.555Z,20.10
2019-03-31T14:06:36.338Z,20.39
2019-03-31T14:09:42.028Z,20.91
2019-03-31T14:12:47.767Z,20.74
2019-03-31T14:15:53.473Z,20.36
2019-03-31T14:18:59.249Z,20.03
2019-03-31T14:22:04.972Z,19.61
2019-03-31T14:25:10.623Z,19.63
2019-03-31T14:28:16.304Z,19.67
2019-03-31T14:31:22.052Z,19.67
2019-03-31T14:34:27.826Z,19.64
2019-03-31T14:37:33.563Z,19.87
2019-03-31T14:40:39.247Z,19.87
2019-03-31T14:43:44.960Z,19.98
2019-03-31T14:46:50.692Z,20.30
2019-03-31T14:49:56.340Z,20.30
2019-03-31T14:53:02.044Z,20.23
2019-03-31T14:56:07.770Z,19.57
2019-03-31T14:59:13.516Z,19.17
2019-03-31T15:02:19.214Z,18.81
2019-03-31T15:05:24.908Z,18.81
2019-03-31T15:08:30.745Z,18.84
2019-03-31T15:11:36.443Z,18.72
2019-03-31T15:14:42.147Z,19.04
2019-03-31T15:17:47.960Z,19.26
2019-03-31T15:20:54.594Z,19.46
2019-03-31T15:24:00.308Z,19.98
2019-03-31T15:27:06.015Z,19.98
2019-03-31T15:30:11.932Z,19.66
2019-03-31T15:33:17.654Z,19.73
2019-03-31T15:36:23.334Z,19.44
2019-03-31T15:39:29.129Z,19.52
2019-03-31T15:42:34.907Z,19.03
2019-03-31T15:45:41.700Z,18.66
2019-03-31T15:48:47.349Z,18.61
2019-03-31T15:51:53.047Z,18.53
2019-03-31T15:54:58.770Z,18.47
2019-03-31T15:58:05.445Z,18.64
2019-03-31T16:01:12.242Z,18.53
2019-03-31T16:04:18.054Z,18.30
2019-03-31T16:07:23.775Z,18.03
2019-03-31T16:10:29.048Z,17.94
2019-03-31T16:13:34.252Z,17.75
2019-03-31T16:16:39.373Z,17.73
2019-03-31T16:19:44.592Z,17.61
2019-03-31T16:22:49.710Z,17.50
2019-03-31T16:25:57.119Z,17.32
2019-03-31T16:29:03.362Z,17.37
2019-03-31T16:32:08.611Z,17.31
2019-03-31T16:35:13.941Z,17.22
2019-03-31T16:38:19.038Z,17.11
2019-03-31T16:41:24.186Z,17.04
2019-03-31T16:44:29.414Z,17.01
2019-03-31T16:47:34.545Z,16.96
2019-03-31T16:50:39.715Z,16.91
2019-03-31T16:53:45.018Z,16.94
2019-03-31T16:56:50.301Z,16.77
2019-03-31T16:59:55.440Z,16.71
2019-03-31T17:03:00.569Z,16.57
2019-03-31T17:06:05.711Z,16.42
2019-03-31T17:09:10.934Z,16.27
2019-03-31T17:12:16.200Z,16.21
2019-03-31T17:15:21.422Z,16.08
2019-03-31T17:18:26.798Z,15.91
2019-03-31T17:21:32.099Z,15.88
2019-03-31T17:24:37.224Z,15.52
2019-03-31T17:27:42.367Z,15.22
2019-03-31T17:30:47.751Z,15.13
2019-03-31T17:33:52.955Z,14.91
2019-03-31T17:36:58.253Z,14.71
2019-03-31T17:40:06.397Z,14.61
2019-03-31T17:43:10.639Z,14.58
2019-03-31T17:46:16.007Z,14.40
2019-03-31T17:49:21.138Z,14.33
2019-03-31T17:52:26.343Z,14.15
2019-03-31T17:55:31.512Z,14.15
2019-03-31T17:58:36.701Z,14.04
2019-03-31T18:01:41.890Z,13.86
2019-03-31T18:04:47.034Z,13.67
2019-03-31T18:07:52.239Z,13.58
2019-03-31T18:10:57.404Z,13.34
2019-03-31T18:14:02.575Z,13.24
2019-03-31T18:17:07.781Z,13.37
2019-03-31T18:20:12.879Z,13.31
2019-03-31T18:23:18.098Z,13.20
2019-03-31T18:26:23.377Z,13.22
2019-03-31T18:29:28.632Z,13.35
2019-03-31T18:32:33.790Z,13.35
2019-03-31T18:35:38.936Z,13.26
2019-03-31T18:38:44.127Z,13.26
2019-03-31T18:41:49.580Z,13.13
2019-03-31T18:44:54.849Z,13.05
2019-03-31T18:48:01.270Z,12.97
2019-03-31T18:51:06.644Z,12.95
2019-03-31T18:54:25.782Z,12.78
2019-03-31T18:57:38.799Z,12.66
2019-03-31T19:01:03.099Z,12.60
2019-03-31T19:04:27.060Z,12.48
2019-03-31T19:07:42.611Z,12.32
2019-03-31T19:11:05.030Z,12.28
2019-03-31T19:14:29.244Z,12.21
2019-03-31T19:17:53.476Z,12.06
2019-03-31T19:21:23.652Z,11.80
2019-03-31T19:24:37.631Z,11.68
2019-03-31T19:27:53.311Z,11.54
2019-03-31T19:31:07.211Z,11.65
2019-03-31T19:34:43.554Z,11.56
2019-03-31T19:38:06.575Z,11.28
2019-03-31T19:41:49.048Z,10.93
2019-03-31T19:45:13.280Z,11.00
2019-03-31T19:48:34.580Z,11.17
2019-03-31T19:51:48.316Z,10.93
2019-03-31T19:55:15.379Z,10.64
2019-03-31T19:58:42.022Z,10.61
2019-03-31T20:02:11.943Z,10.64
2019-03-31T20:05:39.349Z,10.79
2019-03-31T20:09:02.390Z,10.45
2019-03-31T20:12:27.051Z,10.71
2019-03-31T20:15:50.286Z,10.66
2019-03-31T20:19:20.658Z,10.59
2019-03-31T20:22:39.304Z,10.44
2019-03-31T20:25:52.127Z,10.21
2019-03-31T20:29:05.888Z,10.16
2019-03-31T20:32:42.113Z,10.00
2019-03-31T20:36:15.133Z,9.63
2019-03-31T20:39:56.647Z,9.61
2019-03-31T20:43:26.596Z,10.05
2019-03-31T20:46:31.860Z,10.10
2019-03-31T20:49:36.958Z,9.95
2019-03-31T20:52:43.175Z,9.74
2019-03-31T20:55:48.420Z,9.65
2019-03-31T20:58:53.624Z,9.87
2019-03-31T21:01:58.876Z,9.71
2019-03-31T21:05:04.156Z,9.69
2019-03-31T21:08:09.299Z,9.61
2019-03-31T21:11:14.512Z,9.69
2019-03-31T21:14:19.715Z,9.59
2019-03-31T21:17:24.919Z,9.52
2019-03-31T21:20:30.118Z,9.20
2019-03-31T21:23:35.351Z,9.27
2019-03-31T21:26:41.620Z,9.28
2019-03-31T21:29:46.874Z,8.96
2019-03-31T21:32:51.994Z,9.19
2019-03-31T21:35:57.116Z,9.09
2019-03-31T21:39:02.293Z,8.73
2019-03-31T21:42:09.372Z,8.54
2019-03-31T21:45:15.603Z,8.33
2019-03-31T21:48:20.786Z,8.13
2019-03-31T21:51:25.948Z,8.25
2019-03-31T21:54:31.088Z,8.08
2019-03-31T21:57:36.387Z,8.10
2019-03-31T22:00:51.694Z,8.05
2019-03-31T22:03:58.199Z,8.07
2019-03-31T22:07:03.481Z,8.32
2019-03-31T22:10:08.983Z,8.04
2019-03-31T22:13:14.131Z,7.94
2019-03-31T22:16:19.440Z,7.87
2019-03-31T22:19:24.663Z,7.96
2019-03-31T22:22:29.826Z,8.17
2019-03-31T22:25:34.987Z,8.25
2019-03-31T22:28:40.181Z,8.45
2019-03-31T22:31:45.344Z,8.27
2019-03-31T22:34:50.572Z,8.21
2019-03-31T22:37:55.834Z,8.20
2019-03-31T22:41:01.023Z,7.90
2019-03-31T22:44:06.327Z,7.70
2019-03-31T22:47:11.578Z,7.57
2019-03-31T22:50:17.873Z,7.96
2019-03-31T22:53:23.157Z,8.24
2019-03-31T22:56:28.265Z,8.15
2019-03-31T22:59:33.399Z,7.92
2019-03-31T23:02:38.683Z,7.73
2019-03-31T23:05:43.883Z,7.40
2019-03-31T23:08:49.021Z,7.59
2019-03-31T23:11:54.129Z,7.35
2019-03-31T23:14:59.545Z,7.48
2019-03-31T23:18:04.822Z,7.52
2019-03-31T23:21:09.910Z,7.33
2019-03-31T23:24:15.065Z,7.45
2019-03-31T23:27:20.211Z,7.21
2019-03-31T23:30:25.376Z,7.10
2019-03-31T23:33:30.636Z,7.06
2019-03-31T23:36:35.929Z,6.94
2019-03-31T23:39:41.113Z,6.57
2019-03-31T23:42:46.217Z,6.37
2019-03-31T23:45:51.366Z,6.52
2019-03-31T23:48:56.640Z,6.46
2019-03-31T23:52:01.872Z,6.22
2019-03-31T23:55:07.083Z,5.97
2019-03-31T23:58:12.200Z,5.96
